sensor_id;sensor_type;location;lat;lon;timestamp;pressure;altitude;pressure_sealevel;temperature;humidity
35151;BME280;55720;51.972;4.624;2022-08-01T00:00:38;101868.84;;;19.02;100.00
35151;BME280;55720;51.972;4.624;2022-08-01T00:03:04;101864.03;;;18.99;100.00
35151;BME280;55720;51.972;4.624;2022-08-01T00:05:30;101863.94;;;18.95;100.00
35151;BME280;55720;51.972;4.624;2022-08-01T00:07:55;101859.16;;;18.96;100.00
35151;BME280;55720;51.972;4.624;2022-08-01T00:10:21;101867.16;;;18.97;100.00
35151;BME280;55720;51.972;4.624;2022-08-01T00:12:46;101866.28;;;18.93;100.00
35151;BME280;55720;51.972;4.624;2022-08-01T00:15:15;101864.81;;;18.99;100.00
35151;BME280;55720;51.972;4.624;2022-08-01T00:17:41;101869.50;;;18.95;100.00
35151;BME280;55720;51.972;4.624;2022-08-01T00:20:10;101872.00;;;19.00;100.00
35151;BME280;55720;51.972;4.624;2022-08-01T00:22:35;101872.72;;;18.97;100.00
35151;BME280;55720;51.972;4.624;2022-08-01T00:25:02;101873.16;;;18.99;100.00
35151;BME280;55720;51.972;4.624;2022-08-01T00:27:28;101871.91;;;18.97;100.00
35151;BME280;55720;51.972;4.624;2022-08-01T00:29:53;101883.78;;;18.94;100.00
35151;BME280;55720;51.972;4.624;2022-08-01T00:32:19;101877.78;;;18.92;100.00
35151;BME280;55720;51.972;4.624;2022-08-01T00:34:44;101877.41;;;18.93;100.00
35151;BME280;55720;51.972;4.624;2022-08-01T00:37:10;101876.50;;;18.89;100.00
35151;BME280;55720;51.972;4.624;2022-08-01T00:39:35;101882.88;;;18.90;100.00
35151;BME280;55720;51.972;4.624;2022-08-01T00:42:08;101893.69;;;18.91;100.00
35151;BME280;55720;51.972;4.624;2022-08-01T00:44:34;101898.44;;;18.91;100.00
35151;BME280;55720;51.972;4.624;2022-08-01T00:47:00;101895.09;;;18.85;100.00
35151;BME280;55720;51.972;4.624;2022-08-01T00:49:27;101893.34;;;18.77;100.00
35151;BME280;55720;51.972;4.624;2022-08-01T00:51:52;101895.41;;;18.80;100.00
35151;BME280;55720;51.972;4.624;2022-08-01T00:54:17;101897.16;;;18.88;100.00
35151;BME280;55720;51.972;4.624;2022-08-01T00:56:43;101905.88;;;18.87;100.00
35151;BME280;55720;51.972;4.624;2022-08-01T00:59:09;101905.81;;;18.83;100.00
35151;BME280;55720;51.972;4.624;2022-08-01T01:01:34;101915.63;;;18.77;100.00
35151;BME280;55720;51.972;4.624;2022-08-01T01:04:00;101916.03;;;18.79;100.00
35151;BME280;55720;51.972;4.624;2022-08-01T01:06:30;101925.19;;;18.80;100.00
35151;BME280;55720;51.972;4.624;2022-08-01T01:09:23;101925.72;;;18.85;100.00
35151;BME280;55720;51.972;4.624;2022-08-01T01:12:24;101934.06;;;18.85;100.00
35151;BME280;55720;51.972;4.624;2022-08-01T01:15:10;101927.16;;;18.79;100.00
35151;BME280;55720;51.972;4.624;2022-08-01T01:17:46;101924.66;;;18.74;100.00
35151;BME280;55720;51.972;4.624;2022-08-01T01:20:14;101933.38;;;18.73;100.00
35151;BME280;55720;51.972;4.624;2022-08-01T01:22:57;101935.94;;;18.81;100.00
35151;BME280;55720;51.972;4.624;2022-08-01T01:25:51;101937.50;;;18.79;100.00
35151;BME280;55720;51.972;4.624;2022-08-01T01:31:23;101941.19;;;18.67;100.00
35151;BME280;55720;51.972;4.624;2022-08-01T01:33:51;101944.34;;;18.65;100.00
35151;BME280;55720;51.972;4.624;2022-08-01T01:36:19;101954.03;;;18.56;100.00
35151;BME280;55720;51.972;4.624;2022-08-01T01:38:46;101956.38;;;18.54;100.00
35151;BME280;55720;51.972;4.624;2022-08-01T01:41:15;101958.72;;;18.52;100.00
35151;BME280;55720;51.972;4.624;2022-08-01T01:43:43;101963.25;;;18.44;100.00
35151;BME280;55720;51.972;4.624;2022-08-01T01:46:12;101969.25;;;18.46;100.00
35151;BME280;55720;51.972;4.624;2022-08-01T01:48:43;101970.41;;;18.45;100.00
35151;BME280;55720;51.972;4.624;2022-08-01T01:51:11;101974.38;;;18.44;100.00
35151;BME280;55720;51.972;4.624;2022-08-01T01:53:37;101975.53;;;18.43;100.00
35151;BME280;55720;51.972;4.624;2022-08-01T01:56:03;101985.03;;;18.42;100.00
35151;BME280;55720;51.972;4.624;2022-08-01T01:58:31;101976.34;;;18.44;100.00
35151;BME280;55720;51.972;4.624;2022-08-01T02:00:59;101986.75;;;18.47;100.00
35151;BME280;55720;51.972;4.624;2022-08-01T02:03:28;101997.78;;;18.43;100.00
35151;BME280;55720;51.972;4.624;2022-08-01T02:05:54;102001.81;;;18.46;100.00
35151;BME280;55720;51.972;4.624;2022-08-01T02:08:21;102009.00;;;18.47;100.00
35151;BME280;55720;51.972;4.624;2022-08-01T02:10:50;102008.19;;;18.46;100.00
35151;BME280;55720;51.972;4.624;2022-08-01T02:13:37;102015.94;;;18.53;100.00
35151;BME280;55720;51.972;4.624;2022-08-01T02:16:04;102015.50;;;18.51;100.00
35151;BME280;55720;51.972;4.624;2022-08-01T02:18:31;102020.47;;;18.45;100.00
35151;BME280;55720;51.972;4.624;2022-08-01T02:20:58;102023.97;;;18.42;100.00
35151;BME280;55720;51.972;4.624;2022-08-01T02:23:28;102021.00;;;18.35;100.00
35151;BME280;55720;51.972;4.624;2022-08-01T02:25:57;102029.25;;;18.32;100.00
35151;BME280;55720;51.972;4.624;2022-08-01T02:28:32;102029.97;;;18.29;100.00
35151;BME280;55720;51.972;4.624;2022-08-01T02:31:04;102036.44;;;18.33;100.00
35151;BME280;55720;51.972;4.624;2022-08-01T02:33:45;102029.34;;;18.35;100.00
35151;BME280;55720;51.972;4.624;2022-08-01T02:36:12;102039.56;;;18.31;100.00
35151;BME280;55720;51.972;4.624;2022-08-01T02:38:44;102042.00;;;18.33;100.00
35151;BME280;55720;51.972;4.624;2022-08-01T02:41:20;102049.09;;;18.30;100.00
35151;BME280;55720;51.972;4.624;2022-08-01T02:43:49;102051.75;;;18.27;100.00
35151;BME280;55720;51.972;4.624;2022-08-01T02:46:21;102061.81;;;18.31;100.00
35151;BME280;55720;51.972;4.624;2022-08-01T02:48:50;102063.75;;;18.31;100.00
35151;BME280;55720;51.972;4.624;2022-08-01T02:51:18;102060.63;;;18.32;100.00
35151;BME280;55720;51.972;4.624;2022-08-01T02:53:46;102053.34;;;18.28;100.00
35151;BME280;55720;51.972;4.624;2022-08-01T02:56:13;102050.84;;;18.23;100.00
35151;BME280;55720;51.972;4.624;2022-08-01T02:58:41;102045.44;;;18.14;100.00
35151;BME280;55720;51.972;4.624;2022-08-01T03:01:09;102050.59;;;18.00;100.00
35151;BME280;55720;51.972;4.624;2022-08-01T03:03:36;102044.75;;;17.89;100.00
35151;BME280;55720;51.972;4.624;2022-08-01T03:06:02;102046.72;;;17.77;100.00
35151;BME280;55720;51.972;4.624;2022-08-01T03:08:30;102048.84;;;17.67;100.00
35151;BME280;55720;51.972;4.624;2022-08-01T03:10:56;102057.69;;;17.57;100.00
35151;BME280;55720;51.972;4.624;2022-08-01T03:13:25;102059.13;;;17.55;100.00
35151;BME280;55720;51.972;4.624;2022-08-01T03:15:52;102068.75;;;17.45;100.00
35151;BME280;55720;51.972;4.624;2022-08-01T03:18:21;102072.94;;;17.39;100.00
35151;BME280;55720;51.972;4.624;2022-08-01T03:20:50;102071.91;;;17.32;100.00
35151;BME280;55720;51.972;4.624;2022-08-01T03:23:17;102082.19;;;17.31;100.00
35151;BME280;55720;51.972;4.624;2022-08-01T03:25:44;102083.13;;;17.35;100.00
35151;BME280;55720;51.972;4.624;2022-08-01T03:28:13;102080.44;;;17.51;100.00
35151;BME280;55720;51.972;4.624;2022-08-01T03:30:39;102085.97;;;17.51;100.00
35151;BME280;55720;51.972;4.624;2022-08-01T03:33:05;102083.50;;;17.58;100.00
35151;BME280;55720;51.972;4.624;2022-08-01T03:35:36;102090.63;;;17.71;100.00
35151;BME280;55720;51.972;4.624;2022-08-01T03:38:04;102094.31;;;17.75;100.00
35151;BME280;55720;51.972;4.624;2022-08-01T03:40:43;102096.63;;;17.85;100.00
35151;BME280;55720;51.972;4.624;2022-08-01T03:43:19;102105.88;;;17.89;100.00
35151;BME280;55720;51.972;4.624;2022-08-01T03:45:50;102108.97;;;17.88;100.00
35151;BME280;55720;51.972;4.624;2022-08-01T03:48:18;102119.28;;;17.87;100.00
35151;BME280;55720;51.972;4.624;2022-08-01T03:50:47;102115.72;;;17.87;100.00
35151;BME280;55720;51.972;4.624;2022-08-01T03:53:13;102121.50;;;17.94;100.00
35151;BME280;55720;51.972;4.624;2022-08-01T03:55:42;102127.50;;;17.96;100.00
35151;BME280;55720;51.972;4.624;2022-08-01T03:58:09;102124.47;;;18.01;100.00
35151;BME280;55720;51.972;4.624;2022-08-01T04:00:36;102130.84;;;18.01;100.00
35151;BME280;55720;51.972;4.624;2022-08-01T04:03:04;102144.03;;;18.04;100.00
35151;BME280;55720;51.972;4.624;2022-08-01T04:05:30;102151.47;;;18.00;100.00
35151;BME280;55720;51.972;4.624;2022-08-01T04:07:56;102149.94;;;18.03;100.00
35151;BME280;55720;51.972;4.624;2022-08-01T04:10:25;102152.50;;;18.08;100.00
35151;BME280;55720;51.972;4.624;2022-08-01T04:12:51;102160.44;;;18.09;100.00
35151;BME280;55720;51.972;4.624;2022-08-01T04:15:17;102151.78;;;17.99;100.00
35151;BME280;55720;51.972;4.624;2022-08-01T04:17:43;102148.00;;;17.91;100.00
35151;BME280;55720;51.972;4.624;2022-08-01T04:20:09;102146.41;;;17.78;100.00
35151;BME280;55720;51.972;4.624;2022-08-01T04:22:36;102134.97;;;17.67;100.00
35151;BME280;55720;51.972;4.624;2022-08-01T04:25:04;102145.47;;;17.62;100.00
35151;BME280;55720;51.972;4.624;2022-08-01T04:27:36;102199.63;;;17.56;100.00
35151;BME280;55720;51.972;4.624;2022-08-01T04:30:03;102221.38;;;17.54;100.00
35151;BME280;55720;51.972;4.624;2022-08-01T04:32:32;102234.59;;;17.57;100.00
35151;BME280;55720;51.972;4.624;2022-08-01T04:34:59;102241.28;;;17.56;100.00
35151;BME280;55720;51.972;4.624;2022-08-01T04:37:27;102245.56;;;17.53;100.00
35151;BME280;55720;51.972;4.624;2022-08-01T04:39:54;102272.09;;;17.63;100.00
35151;BME280;55720;51.972;4.624;2022-08-01T04:42:21;102286.47;;;17.77;100.00
35151;BME280;55720;51.972;4.624;2022-08-01T04:44:47;102300.72;;;17.88;100.00
35151;BME280;55720;51.972;4.624;2022-08-01T04:47:12;102311.13;;;17.91;100.00
35151;BME280;55720;51.972;4.624;2022-08-01T04:49:39;102321.44;;;18.02;100.00
35151;BME280;55720;51.972;4.624;2022-08-01T04:52:06;102328.84;;;18.10;100.00
35151;BME280;55720;51.972;4.624;2022-08-01T04:54:34;102345.44;;;18.19;100.00
35151;BME280;55720;51.972;4.624;2022-08-01T04:57:02;102355.38;;;18.20;100.00
35151;BME280;55720;51.972;4.624;2022-08-01T04:59:28;102348.09;;;18.15;100.00
35151;BME280;55720;51.972;4.624;2022-08-01T05:04:32;102341.38;;;18.16;100.00
35151;BME280;55720;51.972;4.624;2022-08-01T05:06:58;102337.75;;;18.16;100.00
35151;BME280;55720;51.972;4.624;2022-08-01T05:09:23;102339.41;;;18.17;100.00
35151;BME280;55720;51.972;4.624;2022-08-01T05:11:49;102326.19;;;18.26;100.00
35151;BME280;55720;51.972;4.624;2022-08-01T05:14:14;102331.28;;;18.36;100.00
35151;BME280;55720;51.972;4.624;2022-08-01T05:16:40;102321.44;;;18.51;100.00
35151;BME280;55720;51.972;4.624;2022-08-01T05:19:07;102311.94;;;18.52;100.00
35151;BME280;55720;51.972;4.624;2022-08-01T05:21:33;102303.72;;;18.55;100.00
35151;BME280;55720;51.972;4.624;2022-08-01T05:23:58;102295.00;;;18.57;100.00
35151;BME280;55720;51.972;4.624;2022-08-01T05:26:24;102283.84;;;18.69;100.00
35151;BME280;55720;51.972;4.624;2022-08-01T05:28:49;102268.81;;;18.86;100.00
35151;BME280;55720;51.972;4.624;2022-08-01T05:31:15;102255.19;;;18.96;100.00
35151;BME280;55720;51.972;4.624;2022-08-01T05:33:40;102271.00;;;19.20;100.00
35151;BME280;55720;51.972;4.624;2022-08-01T05:36:05;102265.47;;;19.51;100.00
35151;BME280;55720;51.972;4.624;2022-08-01T05:38:31;102253.97;;;19.84;100.00
35151;BME280;55720;51.972;4.624;2022-08-01T05:40:56;102222.91;;;20.01;100.00
35151;BME280;55720;51.972;4.624;2022-08-01T05:43:21;102186.09;;;20.11;100.00
35151;BME280;55720;51.972;4.624;2022-08-01T05:45:47;102143.25;;;20.20;100.00
35151;BME280;55720;51.972;4.624;2022-08-01T05:48:13;102113.38;;;20.20;100.00
35151;BME280;55720;51.972;4.624;2022-08-01T05:50:38;102078.69;;;20.18;100.00
35151;BME280;55720;51.972;4.624;2022-08-01T05:53:04;102043.59;;;20.17;100.00
35151;BME280;55720;51.972;4.624;2022-08-01T05:55:29;101997.13;;;19.82;100.00
35151;BME280;55720;51.972;4.624;2022-08-01T05:57:54;101982.50;;;19.70;100.00
35151;BME280;55720;51.972;4.624;2022-08-01T06:00:20;101965.66;;;19.62;100.00
35151;BME280;55720;51.972;4.624;2022-08-01T06:02:46;101949.06;;;19.50;100.00
35151;BME280;55720;51.972;4.624;2022-08-01T06:05:11;101934.47;;;19.38;100.00
35151;BME280;55720;51.972;4.624;2022-08-01T06:07:36;101939.41;;;19.29;100.00
35151;BME280;55720;51.972;4.624;2022-08-01T06:10:04;101934.16;;;19.24;100.00
35151;BME280;55720;51.972;4.624;2022-08-01T06:12:32;101936.41;;;19.18;100.00
35151;BME280;55720;51.972;4.624;2022-08-01T06:14:58;101933.69;;;19.02;100.00
35151;BME280;55720;51.972;4.624;2022-08-01T06:17:23;101912.03;;;18.77;100.00
35151;BME280;55720;51.972;4.624;2022-08-01T06:19:48;101905.56;;;18.73;100.00
35151;BME280;55720;51.972;4.624;2022-08-01T06:22:14;101907.78;;;18.67;100.00
35151;BME280;55720;51.972;4.624;2022-08-01T06:24:39;101901.78;;;18.81;100.00
35151;BME280;55720;51.972;4.624;2022-08-01T06:27:04;101886.41;;;18.87;100.00
35151;BME280;55720;51.972;4.624;2022-08-01T06:29:30;101923.72;;;19.01;100.00
35151;BME280;55720;51.972;4.624;2022-08-01T06:31:56;101908.22;;;19.20;100.00
35151;BME280;55720;51.972;4.624;2022-08-01T06:34:22;101894.44;;;19.27;100.00
35151;BME280;55720;51.972;4.624;2022-08-01T06:36:48;101866.28;;;19.32;100.00
35151;BME280;55720;51.972;4.624;2022-08-01T06:39:13;101848.56;;;19.59;100.00
35151;BME280;55720;51.972;4.624;2022-08-01T06:41:38;101815.78;;;19.33;100.00
35151;BME280;55720;51.972;4.624;2022-08-01T06:44:06;101805.97;;;19.39;100.00
35151;BME280;55720;51.972;4.624;2022-08-01T06:46:32;101790.22;;;19.47;100.00
35151;BME280;55720;51.972;4.624;2022-08-01T06:48:57;101770.66;;;19.43;100.00
35151;BME280;55720;51.972;4.624;2022-08-01T06:51:22;101755.69;;;19.32;100.00
35151;BME280;55720;51.972;4.624;2022-08-01T06:53:48;101777.31;;;19.39;100.00
35151;BME280;55720;51.972;4.624;2022-08-01T06:56:13;101789.53;;;19.53;100.00
35151;BME280;55720;51.972;4.624;2022-08-01T06:58:39;101767.66;;;19.75;100.00
35151;BME280;55720;51.972;4.624;2022-08-01T07:01:05;101746.06;;;19.94;100.00
35151;BME280;55720;51.972;4.624;2022-08-01T07:03:33;101716.47;;;20.12;100.00
35151;BME280;55720;51.972;4.624;2022-08-01T07:05:59;101683.91;;;20.20;100.00
35151;BME280;55720;51.972;4.624;2022-08-01T07:08:25;101645.00;;;20.01;100.00
35151;BME280;55720;51.972;4.624;2022-08-01T07:10:50;101629.06;;;19.72;100.00
35151;BME280;55720;51.972;4.624;2022-08-01T07:13:16;101631.41;;;19.43;100.00
35151;BME280;55720;51.972;4.624;2022-08-01T07:15:46;101656.94;;;19.03;100.00
35151;BME280;55720;51.972;4.624;2022-08-01T07:18:11;101680.13;;;18.69;100.00
35151;BME280;55720;51.972;4.624;2022-08-01T07:20:37;101727.06;;;18.51;100.00
35151;BME280;55720;51.972;4.624;2022-08-01T07:23:03;101785.72;;;18.46;100.00
35151;BME280;55720;51.972;4.624;2022-08-01T07:25:28;101825.28;;;18.40;100.00
35151;BME280;55720;51.972;4.624;2022-08-01T07:27:54;101855.06;;;18.39;100.00
35151;BME280;55720;51.972;4.624;2022-08-01T07:30:19;101895.53;;;18.37;100.00
35151;BME280;55720;51.972;4.624;2022-08-01T07:32:45;101920.56;;;18.37;100.00
35151;BME280;55720;51.972;4.624;2022-08-01T07:35:10;101945.91;;;18.35;100.00
35151;BME280;55720;51.972;4.624;2022-08-01T07:37:36;101971.59;;;18.44;100.00
35151;BME280;55720;51.972;4.624;2022-08-01T07:40:01;101996.16;;;18.42;100.00
35151;BME280;55720;51.972;4.624;2022-08-01T07:42:29;102009.94;;;18.51;100.00
35151;BME280;55720;51.972;4.624;2022-08-01T07:44:54;102026.44;;;18.59;100.00
35151;BME280;55720;51.972;4.624;2022-08-01T07:47:26;102033.28;;;18.62;100.00
35151;BME280;55720;51.972;4.624;2022-08-01T07:49:52;102027.72;;;18.62;100.00
35151;BME280;55720;51.972;4.624;2022-08-01T07:52:18;102045.22;;;18.62;100.00
35151;BME280;55720;51.972;4.624;2022-08-01T07:54:43;102049.16;;;18.61;100.00
35151;BME280;55720;51.972;4.624;2022-08-01T07:57:09;102014.09;;;18.29;100.00
35151;BME280;55720;51.972;4.624;2022-08-01T07:59:34;101990.41;;;18.35;100.00
35151;BME280;55720;51.972;4.624;2022-08-01T08:02:00;101983.78;;;18.40;100.00
35151;BME280;55720;51.972;4.624;2022-08-01T08:04:26;101960.28;;;18.37;100.00
35151;BME280;55720;51.972;4.624;2022-08-01T08:06:52;101952.47;;;18.43;100.00
35151;BME280;55720;51.972;4.624;2022-08-01T08:09:18;101934.25;;;18.45;100.00
35151;BME280;55720;51.972;4.624;2022-08-01T08:11:45;101897.13;;;18.38;100.00
35151;BME280;55720;51.972;4.624;2022-08-01T08:14:11;101870.28;;;18.77;100.00
35151;BME280;55720;51.972;4.624;2022-08-01T08:16:37;101827.66;;;18.73;100.00
35151;BME280;55720;51.972;4.624;2022-08-01T08:19:02;101760.81;;;18.88;100.00
35151;BME280;55720;51.972;4.624;2022-08-01T08:21:28;101703.19;;;19.31;100.00
35151;BME280;55720;51.972;4.624;2022-08-01T08:23:55;101644.72;;;19.31;100.00
35151;BME280;55720;51.972;4.624;2022-08-01T08:26:38;101612.44;;;19.79;100.00
35151;BME280;55720;51.972;4.624;2022-08-01T08:29:04;101567.94;;;19.82;100.00
35151;BME280;55720;51.972;4.624;2022-08-01T08:31:29;101522.56;;;20.19;100.00
35151;BME280;55720;51.972;4.624;2022-08-01T08:33:55;101492.97;;;20.44;100.00
35151;BME280;55720;51.972;4.624;2022-08-01T08:36:20;101464.34;;;20.47;100.00
35151;BME280;55720;51.972;4.624;2022-08-01T08:38:46;101453.00;;;20.77;100.00
35151;BME280;55720;51.972;4.624;2022-08-01T08:41:11;101433.94;;;21.44;100.00
35151;BME280;55720;51.972;4.624;2022-08-01T08:43:37;101419.78;;;21.95;100.00
35151;BME280;55720;51.972;4.624;2022-08-01T08:46:03;101401.88;;;22.70;100.00
35151;BME280;55720;51.972;4.624;2022-08-01T08:48:29;101430.25;;;23.00;100.00
35151;BME280;55720;51.972;4.624;2022-08-01T08:50:55;101439.03;;;22.95;100.00
35151;BME280;55720;51.972;4.624;2022-08-01T08:53:23;101452.63;;;22.44;100.00
35151;BME280;55720;51.972;4.624;2022-08-01T08:55:49;101469.44;;;22.72;100.00
35151;BME280;55720;51.972;4.624;2022-08-01T08:58:17;101456.16;;;24.34;100.00
35151;BME280;55720;51.972;4.624;2022-08-01T09:00:43;101464.16;;;25.28;100.00
35151;BME280;55720;51.972;4.624;2022-08-01T09:03:08;101471.91;;;25.54;100.00
35151;BME280;55720;51.972;4.624;2022-08-01T09:05:34;101464.06;;;26.33;100.00
35151;BME280;55720;51.972;4.624;2022-08-01T09:07:59;101516.91;;;25.88;100.00
35151;BME280;55720;51.972;4.624;2022-08-01T09:10:25;101575.34;;;25.73;100.00
35151;BME280;55720;51.972;4.624;2022-08-01T09:13:12;101626.31;;;26.16;100.00
35151;BME280;55720;51.972;4.624;2022-08-01T09:15:43;101715.72;;;26.02;100.00
35151;BME280;55720;51.972;4.624;2022-08-01T09:18:33;101782.22;;;25.85;100.00
35151;BME280;55720;51.972;4.624;2022-08-01T09:21:13;101803.22;;;24.97;100.00
35151;BME280;55720;51.972;4.624;2022-08-01T09:23:52;101812.00;;;25.10;100.00
35151;BME280;55720;51.972;4.624;2022-08-01T09:26:33;101810.34;;;25.88;100.00
35151;BME280;55720;51.972;4.624;2022-08-01T09:28:59;101840.72;;;25.49;100.00
35151;BME280;55720;51.972;4.624;2022-08-01T09:31:27;101850.38;;;25.52;100.00
35151;BME280;55720;51.972;4.624;2022-08-01T09:33:59;101865.41;;;25.06;100.00
35151;BME280;55720;51.972;4.624;2022-08-01T09:36:47;101853.28;;;25.96;100.00
35151;BME280;55720;51.972;4.624;2022-08-01T09:39:30;101900.41;;;26.81;100.00
35151;BME280;55720;51.972;4.624;2022-08-01T09:41:58;101954.28;;;26.94;100.00
35151;BME280;55720;51.972;4.624;2022-08-01T09:44:39;101964.28;;;25.88;100.00
35151;BME280;55720;51.972;4.624;2022-08-01T09:47:05;101973.41;;;24.31;100.00
35151;BME280;55720;51.972;4.624;2022-08-01T09:49:33;101966.63;;;23.38;100.00
35151;BME280;55720;51.972;4.624;2022-08-01T09:52:13;101955.69;;;23.16;100.00
35151;BME280;55720;51.972;4.624;2022-08-01T09:54:39;101946.56;;;22.68;100.00
35151;BME280;55720;51.972;4.624;2022-08-01T09:57:15;101925.69;;;24.59;100.00
35151;BME280;55720;51.972;4.624;2022-08-01T09:59:43;101953.78;;;25.95;100.00
35151;BME280;55720;51.972;4.624;2022-08-01T10:02:10;101970.63;;;27.43;100.00
35151;BME280;55720;51.972;4.624;2022-08-01T10:04:46;101998.38;;;27.52;100.00
35151;BME280;55720;51.972;4.624;2022-08-01T10:07:12;102021.00;;;26.52;100.00
35151;BME280;55720;51.972;4.624;2022-08-01T10:09:40;102028.44;;;26.25;100.00
35151;BME280;55720;51.972;4.624;2022-08-01T10:12:06;102031.91;;;26.50;100.00
35151;BME280;55720;51.972;4.624;2022-08-01T10:14:32;102037.19;;;25.36;100.00
35151;BME280;55720;51.972;4.624;2022-08-01T10:16:59;102033.91;;;25.66;100.00
35151;BME280;55720;51.972;4.624;2022-08-01T10:19:27;102028.06;;;26.19;100.00
35151;BME280;55720;51.972;4.624;2022-08-01T10:21:54;102038.00;;;26.38;100.00
35151;BME280;55720;51.972;4.624;2022-08-01T10:24:21;102035.28;;;26.86;100.00
35151;BME280;55720;51.972;4.624;2022-08-01T10:27:14;102037.09;;;27.07;100.00
35151;BME280;55720;51.972;4.624;2022-08-01T10:29:54;102057.13;;;25.91;100.00
35151;BME280;55720;51.972;4.624;2022-08-01T10:32:21;102061.25;;;25.62;100.00
35151;BME280;55720;51.972;4.624;2022-08-01T10:34:49;102060.09;;;25.38;100.00
35151;BME280;55720;51.972;4.624;2022-08-01T10:37:14;102063.31;;;25.19;100.00
35151;BME280;55720;51.972;4.624;2022-08-01T10:39:41;102069.31;;;25.18;100.00
35151;BME280;55720;51.972;4.624;2022-08-01T10:42:09;102072.53;;;24.63;100.00
35151;BME280;55720;51.972;4.624;2022-08-01T10:44:36;102064.09;;;24.63;100.00
35151;BME280;55720;51.972;4.624;2022-08-01T10:47:12;102073.88;;;23.90;100.00
35151;BME280;55720;51.972;4.624;2022-08-01T10:49:43;102070.34;;;24.11;100.00
35151;BME280;55720;51.972;4.624;2022-08-01T10:52:17;102064.88;;;24.64;100.00
35151;BME280;55720;51.972;4.624;2022-08-01T10:54:43;102064.13;;;25.13;100.00
35151;BME280;55720;51.972;4.624;2022-08-01T10:57:09;102071.34;;;24.85;100.00
35151;BME280;55720;51.972;4.624;2022-08-01T10:59:36;102063.72;;;25.32;100.00
35151;BME280;55720;51.972;4.624;2022-08-01T11:02:25;102076.16;;;24.81;100.00
35151;BME280;55720;51.972;4.624;2022-08-01T11:04:57;102090.16;;;24.64;100.00
35151;BME280;55720;51.972;4.624;2022-08-01T11:07:53;102084.19;;;24.90;100.00
35151;BME280;55720;51.972;4.624;2022-08-01T11:10:26;102090.59;;;25.29;100.00
35151;BME280;55720;51.972;4.624;2022-08-01T11:12:55;102105.00;;;24.61;100.00
35151;BME280;55720;51.972;4.624;2022-08-01T11:15:22;102108.69;;;23.85;100.00
35151;BME280;55720;51.972;4.624;2022-08-01T11:17:53;102102.94;;;23.57;100.00
35151;BME280;55720;51.972;4.624;2022-08-01T11:20:24;102081.41;;;23.21;100.00
35151;BME280;55720;51.972;4.624;2022-08-01T11:33:12;102090.75;;;24.00;100.00
35151;BME280;55720;51.972;4.624;2022-08-01T11:38:39;102092.22;;;25.34;100.00
35151;BME280;55720;51.972;4.624;2022-08-01T11:41:20;102101.31;;;24.35;100.00
35151;BME280;55720;51.972;4.624;2022-08-01T11:43:57;102103.56;;;23.98;100.00
35151;BME280;55720;51.972;4.624;2022-08-01T11:46:48;102102.25;;;23.81;100.00
35151;BME280;55720;51.972;4.624;2022-08-01T11:54:39;102097.63;;;24.14;100.00
35151;BME280;55720;51.972;4.624;2022-08-01T11:57:10;102115.34;;;24.35;100.00
35151;BME280;55720;51.972;4.624;2022-08-01T11:59:43;102115.41;;;24.53;100.00
35151;BME280;55720;51.972;4.624;2022-08-01T12:02:30;102111.53;;;25.21;100.00
35151;BME280;55720;51.972;4.624;2022-08-01T12:05:01;102110.63;;;25.81;100.00
35151;BME280;55720;51.972;4.624;2022-08-01T12:07:29;102117.47;;;25.73;100.00
35151;BME280;55720;51.972;4.624;2022-08-01T12:10:05;102110.16;;;26.04;100.00
35151;BME280;55720;51.972;4.624;2022-08-01T12:12:32;102121.13;;;25.48;100.00
35151;BME280;55720;51.972;4.624;2022-08-01T12:15:01;102125.16;;;24.94;100.00
35151;BME280;55720;51.972;4.624;2022-08-01T12:17:41;102117.13;;;25.14;100.00
35151;BME280;55720;51.972;4.624;2022-08-01T12:20:09;102116.34;;;25.00;100.00
35151;BME280;55720;51.972;4.624;2022-08-01T12:22:36;102131.19;;;25.21;100.00
35151;BME280;55720;51.972;4.624;2022-08-01T12:25:09;102128.75;;;24.91;100.00
35151;BME280;55720;51.972;4.624;2022-08-01T12:27:37;102135.19;;;24.95;100.00
35151;BME280;55720;51.972;4.624;2022-08-01T12:30:11;102140.25;;;24.44;100.00
35151;BME280;55720;51.972;4.624;2022-08-01T12:32:38;102136.75;;;23.85;100.00
35151;BME280;55720;51.972;4.624;2022-08-01T12:35:18;102139.81;;;23.63;100.00
35151;BME280;55720;51.972;4.624;2022-08-01T12:37:50;102145.84;;;23.65;100.00
35151;BME280;55720;51.972;4.624;2022-08-01T12:42:45;102144.81;;;23.90;100.00
35151;BME280;55720;51.972;4.624;2022-08-01T12:45:14;102151.06;;;23.70;100.00
35151;BME280;55720;51.972;4.624;2022-08-01T12:47:41;102142.66;;;23.73;100.00
35151;BME280;55720;51.972;4.624;2022-08-01T12:50:10;102137.78;;;24.28;100.00
35151;BME280;55720;51.972;4.624;2022-08-01T12:52:37;102135.88;;;24.57;100.00
35151;BME280;55720;51.972;4.624;2022-08-01T12:57:30;102135.19;;;25.03;100.00
35151;BME280;55720;51.972;4.624;2022-08-01T13:00:17;102132.78;;;25.15;100.00
35151;BME280;55720;51.972;4.624;2022-08-01T13:02:47;102140.34;;;24.76;100.00
35151;BME280;55720;51.972;4.624;2022-08-01T13:05:14;102141.19;;;24.83;100.00
35151;BME280;55720;51.972;4.624;2022-08-01T13:10:10;102138.63;;;24.43;100.00
35151;BME280;55720;51.972;4.624;2022-08-01T13:12:36;102139.13;;;24.63;100.00
35151;BME280;55720;51.972;4.624;2022-08-01T13:15:21;102128.78;;;25.09;100.00
35151;BME280;55720;51.972;4.624;2022-08-01T13:17:48;102131.53;;;24.77;100.00
35151;BME280;55720;51.972;4.624;2022-08-01T13:20:28;102140.19;;;24.26;100.00